Latest Weather Observations for Marree Airport

IDS60801

Issued at 11:31 pm CDT Saturday 13 February 2016 (issued every 30 minutes, with the page automatically refreshed every 10 minutes)

About weather observations | Map of weather stations | Latest weather observations for SA | Other Formats
Station Details ID: 017126 Name: MARREE AERO Lat: -29.66 Lon: 138.07 Height: 50.0 m
Data from the previous 72 hours. | See also: Recent months at Marree Airport
Date/Time
CDT
Temp
°C
App
Temp
°C
Dew
Point
Rel
Hum
%
Delta-T
°C
Wind Press
QNH
hPa
Press
MSL
hPa
Rain
since 9 am
mm
Dir
 
Spd
km/h
Gust
km/h
Spd
kts
Gust
kts
13/11:30pm 32.5 26.9 -3.0 10 16.5 SSE 17 20 9 11 1007.9 1007.6 0.0
13/11:00pm 34.3 28.1 -3.1 9 17.5 SSW 20 22 11 12 1007.9 1007.6 0.0
13/10:30pm 34.9 28.6 -4.2 8 18.1 SSW 20 22 11 12 1007.8 1007.5 0.0
13/10:00pm 35.7 29.4 -3.6 8 18.4 S 20 24 11 13 1007.8 1007.5 0.0
13/09:30pm 36.0 30.5 -1.8 9 18.3 S 17 20 9 11 1007.6 1007.3 0.0
13/09:00pm 37.1 31.9 0.4 10 18.6 S 17 19 9 10 1007.3 1007.0 0.0
13/08:30pm 37.6 33.1 -0.6 9 19.1 SSE 13 15 7 8 1006.9 1006.6 0.0
13/08:00pm 40.2 35.7 -0.3 8 20.6 SE 13 17 7 9 1006.6 1006.3 0.0
13/07:30pm 41.6 37.4 -1.1 7 21.7 ESE 11 17 6 9 1006.3 1006.0 0.0
13/07:00pm 42.2 38.8 -0.7 7 21.9 SE 7 20 4 11 1006.3 1006.0 0.0
13/06:30pm 42.6 38.5 -0.4 7 22.2 SE 11 15 6 8 1006.3 1006.0 0.0
13/06:00pm 42.5 38.0 -0.5 7 22.1 SE 13 26 7 14 1006.3 1006.0 0.0
13/05:30pm 42.6 36.9 -0.4 7 22.2 SE 19 28 10 15 1006.4 1006.1 0.0
13/05:00pm 42.6 38.5 -0.4 7 22.1 W 11 20 6 11 1006.7 1006.4 0.0
13/04:30pm 42.6 38.1 -0.4 7 22.2 SE 13 19 7 10 1006.9 1006.6 0.0
13/04:00pm 42.4 38.2 -0.6 7 22.0 NE 11 17 6 9 1007.0 1006.7 0.0
13/03:30pm 42.3 38.9 -0.6 7 22.0 SW 7 17 4 9 1007.4 1007.1 0.0
13/03:00pm 42.0 37.4 -0.9 7 21.9 SE 13 22 7 12 1007.9 1007.6 0.0
13/02:30pm 42.1 38.6 1.1 8 21.6 S 9 17 5 9 1008.3 1008.0 0.0
13/02:00pm 42.3 38.4 1.2 8 21.6 NNW 11 19 6 10 1008.6 1008.3 0.0
13/01:30pm 41.5 38.3 0.6 8 21.3 ESE 7 19 4 10 1009.0 1008.7 0.0
13/01:00pm 41.1 38.1 2.0 9 20.7 N 7 17 4 9 1009.5 1009.1 0.0
13/12:30pm 40.5 37.3 3.0 10 20.1 E 9 15 5 8 1009.8 1009.4 0.0
13/12:00pm 40.2 36.2 2.8 10 19.9 ESE 13 22 7 12 1010.1 1009.7 0.0
13/11:30am 39.1 34.6 1.9 10 19.5 E 15 22 8 12 1010.4 1010.0 0.0
13/11:00am 38.1 33.7 2.5 11 18.7 ESE 15 22 8 12 1010.6 1010.2 0.0
13/10:30am 36.9 32.1 2.8 12 17.9 SE 17 26 9 14 1010.7 1010.3 0.0
13/10:00am 35.2 30.2 4.7 15 16.3 SSE 20 24 11 13 1010.8 1010.4 0.0
13/09:30am 33.5 28.6 5.1 17 15.1 SSE 20 26 11 14 1010.8 1010.4 0.0
13/09:00am 31.5 25.7 4.3 18 14.1 SSE 24 30 13 16 1010.8 1010.4 0.0
13/08:30am 29.8 24.9 5.1 21 12.9 SSE 20 26 11 14 1010.6 1010.2 0.0
13/08:00am 26.4 22.5 5.4 26 10.8 SSE 15 20 8 11 1010.4 1010.0 0.0
13/07:30am 23.7 19.6 4.1 28 9.7 SSE 15 19 8 10 1010.3 1009.9 0.0
13/07:00am 22.9 18.4 4.4 30 9.1 SE 17 19 9 10 1009.9 1009.5 0.0
13/06:30am 22.7 19.0 4.2 30 9.1 SE 13 15 7 8 1009.5 1009.1 0.0
13/06:00am 23.7 21.7 4.6 29 9.5 S 4 9 2 5 1009.2 1008.9 0.0
13/05:30am 23.6 19.4 4.0 28 9.7 SSE 15 15 8 8 1008.9 1008.6 0.0
13/05:00am 24.0 20.2 3.9 27 9.9 SSE 13 15 7 8 1008.7 1008.4 0.0
13/04:30am 25.5 23.8 4.0 25 10.7 S 2 7 1 4 1008.7 1008.4 0.0
13/04:21am 26.0 23.5 3.9 24 11.0 S 6 17 3 9 1008.7 1008.4 0.0
13/04:20am 35.6 32.2 -2.1 9 18.1 S 6 17 3 9 1008.6 1008.3 0.0
13/04:00am 26.4 23.7 3.6 23 11.3 SSE 7 9 4 5 1008.6 1008.3 0.0
13/03:30am 26.7 22.9 3.9 23 11.4 SSE 13 15 7 8 1008.5 1008.2 0.0
13/03:00am 27.6 23.7 3.3 21 12.1 SSE 13 20 7 11 1008.6 1008.3 0.0
13/02:30am 29.6 24.4 3.6 19 13.2 S 20 24 11 13 1008.8 1008.5 0.0
13/02:00am 29.9 24.8 3.0 18 13.5 S 19 20 10 11 1008.9 1008.6 0.0
13/01:30am 30.2 25.0 2.5 17 13.9 S 19 22 10 12 1009.5 1009.1 0.0
13/01:00am 30.8 25.2 1.2 15 14.5 S 20 26 11 14 1009.6 1009.2 0.0
13/12:30am 30.1 25.0 0.6 15 14.3 S 17 19 9 10 1009.7 1009.3 0.0
13/12:00am 29.3 25.0 0.9 16 13.8 SSW 13 15 7 8 1009.7 1009.3 0.0
 
Date/Time
CDT
Temp
°C
App
Temp
°C
Dew
Point
Rel
Hum
%
Delta-T
°C
Wind Press
QNH
hPa
Press
MSL
hPa
Rain
since 9 am
mm
Dir
 
Spd
km/h
Gust
km/h
Spd
kts
Gust
kts
12/11:30pm 28.6 24.5 2.0 18 13.1 SSW 13 15 7 8 1009.8 1009.4 0.0
12/11:00pm 30.8 25.8 1.2 15 14.5 SSW 17 17 9 9 1009.8 1009.4 0.0
12/10:30pm 31.2 26.6 1.5 15 14.7 SSW 15 17 8 9 1009.7 1009.3 0.0
12/10:00pm 32.6 27.5 0.6 13 15.7 SSW 17 19 9 10 1009.4 1009.0 0.0
12/09:30pm 33.2 27.6 0.0 12 16.3 SSW 19 20 10 11 1009.1 1008.8 0.0
12/09:00pm 34.5 28.7 -1.5 10 17.4 SSW 19 20 10 11 1008.9 1008.6 0.0
12/08:30pm 35.6 30.5 -2.1 9 18.1 SSW 15 17 8 9 1008.6 1008.3 0.0
12/08:00pm 37.6 32.5 -2.2 8 19.3 S 15 19 8 10 1008.3 1008.0 0.0
12/07:30pm 39.0 33.6 -1.2 8 20.1 S 17 24 9 13 1008.0 1007.7 0.0
12/07:00pm 39.7 33.6 -2.5 7 20.7 SSW 20 28 11 15 1007.8 1007.5 0.0
12/06:30pm 39.7 33.6 -2.5 7 20.7 SSW 20 30 11 16 1007.7 1007.4 0.0
12/06:00pm 40.4 34.0 -2.0 7 21.1 SSW 22 32 12 17 1007.5 1007.2 0.0
12/05:30pm 40.1 35.2 -0.4 8 20.6 S 15 28 8 15 1007.8 1007.5 0.0
12/05:00pm 40.7 35.1 0.0 8 20.8 SSW 19 32 10 17 1007.8 1007.5 0.0
12/04:30pm 41.1 36.3 0.3 8 21.1 SW 15 28 8 15 1008.0 1007.7 0.0
12/04:00pm 42.0 36.4 1.0 8 21.5 SW 20 32 11 17 1008.1 1007.8 0.0
12/03:30pm 41.2 37.1 2.0 9 20.8 WSW 13 24 7 13 1008.4 1008.1 0.0
12/03:00pm 40.7 35.1 0.0 8 20.9 SW 19 30 10 16 1008.7 1008.4 0.0
12/02:30pm 40.1 35.4 1.2 9 20.2 SW 15 26 8 14 1009.1 1008.8 0.0
12/02:00pm 39.4 34.3 0.7 9 19.9 WSW 17 26 9 14 1009.6 1009.2 0.0
12/01:30pm 39.7 35.0 0.9 9 20.1 SW 15 22 8 12 1010.0 1009.6 0.0
12/01:00pm 38.5 35.1 4.1 12 18.5 WNW 11 20 6 11 1010.3 1009.9 0.0
12/12:30pm 37.6 35.2 4.5 13 17.9 WSW 6 11 3 6 1010.7 1010.3 0.0
12/12:00pm 37.0 34.2 5.1 14 17.3 SSW 9 11 5 6 1010.9 1010.5 0.0
12/11:30am 35.4 32.9 4.8 15 16.4 ESE 7 15 4 8 1011.2 1010.8 0.0
12/11:00am 35.2 31.5 4.7 15 16.3 SE 13 20 7 11 1011.4 1011.0 0.0
12/10:30am 34.1 29.3 4.7 16 15.6 SE 19 24 10 13 1011.3 1010.9 0.0
12/10:00am 33.4 28.1 5.0 17 15.1 SE 22 28 12 15 1011.3 1010.9 0.0
12/09:30am 32.2 27.3 7.1 21 13.7 SSE 22 28 12 15 1011.4 1011.0 0.0
12/09:00am 31.1 26.1 8.2 24 12.7 SSE 24 30 13 16 1011.3 1010.9 0.0
12/08:30am 29.4 25.6 9.0 28 11.3 SSE 19 24 10 13 1011.2 1010.8 0.0
12/08:00am 27.2 24.4 10.0 34 9.6 SSE 15 19 8 10 1011.0 1010.6 0.0
12/07:30am 25.3 22.9 10.0 38 8.5 SSE 13 17 7 9 1010.7 1010.3 0.0
12/07:00am 25.2 22.0 9.9 38 8.4 SSE 17 20 9 11 1010.4 1010.0 0.0
12/06:30am 25.7 22.0 10.3 38 8.6 SSE 20 24 11 13 1010.1 1009.7 0.0
12/06:00am 26.7 23.3 10.4 36 9.2 S 19 22 10 12 1010.0 1009.6 0.0
12/05:30am 27.2 23.6 10.4 35 9.5 S 20 24 11 13 1009.9 1009.5 0.0
12/05:00am 27.4 23.2 11.0 36 9.3 S 24 30 13 16 1009.8 1009.4 0.0
12/04:30am 27.4 23.2 11.0 36 9.3 S 24 28 13 15 1009.7 1009.3 0.0
12/04:00am 27.7 23.1 10.9 35 9.6 S 26 32 14 17 1009.7 1009.3 0.0
12/03:30am 28.1 24.1 10.3 33 10.1 SSW 22 28 12 15 1009.7 1009.3 0.0
12/03:00am 28.7 24.4 9.4 30 10.8 SSW 22 28 12 15 1009.9 1009.5 0.0
12/02:30am 28.5 24.4 7.7 27 11.3 S 19 22 10 12 1010.3 1009.9 0.0
12/02:00am 29.1 24.8 7.1 25 11.8 SSW 19 20 10 11 1010.4 1010.0 0.0
12/01:30am 29.5 25.4 6.2 23 12.4 S 17 20 9 11 1010.7 1010.3 0.0
12/01:00am 30.8 26.1 6.0 21 13.2 S 20 26 11 14 1010.9 1010.5 0.0
12/12:30am 31.6 25.9 6.6 21 13.5 S 26 32 14 17 1011.0 1010.6 0.0
12/12:00am 32.4 26.9 5.8 19 14.3 SSW 24 35 13 19 1010.9 1010.5 0.0
 
Date/Time
CDT
Temp
°C
App
Temp
°C
Dew
Point
Rel
Hum
%
Delta-T
°C
Wind Press
QNH
hPa
Press
MSL
hPa
Rain
since 9 am
mm
Dir
 
Spd
km/h
Gust
km/h
Spd
kts
Gust
kts
11/11:30pm 32.2 27.3 4.1 17 14.6 SSW 19 24 10 13 1010.7 1010.3 0.0
11/11:00pm 31.9 27.8 4.6 18 14.3 SSW 15 17 8 9 1010.4 1010.0 0.0
11/10:30pm 33.0 29.0 4.7 17 14.9 S 15 17 8 9 1010.2 1009.8 0.0
11/10:00pm 34.2 29.3 3.9 15 15.9 S 19 22 10 12 1010.0 1009.6 0.0
11/09:30pm 35.1 29.9 3.6 14 16.5 S 20 24 11 13 1009.7 1009.3 0.0
11/09:00pm 36.1 30.5 3.3 13 17.2 S 22 26 12 14 1009.4 1009.0 0.0
11/08:30pm 36.9 30.8 2.8 12 17.9 SSW 24 30 13 16 1008.9 1008.6 0.0
11/08:00pm 37.9 30.7 1.0 10 18.9 SSW 28 35 15 19 1008.5 1008.2 0.0
11/07:30pm 39.2 31.6 0.6 9 19.8 SW 30 35 16 19 1008.0 1007.7 0.0
11/07:00pm 40.1 33.7 1.2 9 20.2 SW 24 32 13 17 1007.8 1007.5 0.0
11/06:30pm 40.7 34.4 1.7 9 20.5 SSW 24 35 13 19 1007.5 1007.2 0.0
11/06:00pm 41.3 34.7 2.1 9 20.8 SW 26 35 14 19 1007.3 1007.0 0.0
11/05:30pm 40.8 34.8 3.2 10 20.3 SW 24 35 13 19 1007.2 1006.9 0.0
11/05:00pm 41.4 36.2 2.2 9 20.8 W 19 30 10 16 1007.1 1006.8 0.0
11/04:30pm 41.7 37.1 3.9 10 20.7 WSW 17 28 9 15 1007.1 1006.8 0.0
11/04:00pm 41.9 36.2 2.6 9 21.1 SW 22 33 12 18 1007.4 1007.1 0.0
11/03:30pm 40.1 36.1 2.7 10 19.9 SSW 13 24 7 13 1007.6 1007.3 0.0
11/03:00pm 40.5 36.5 3.0 10 20.1 SW 13 26 7 14 1007.9 1007.6 0.0
11/02:30pm 41.2 36.3 2.0 9 20.8 W 17 32 9 17 1008.3 1008.0 0.0
11/02:00pm 40.7 37.1 3.1 10 20.2 SSW 11 24 6 13 1008.7 1008.4 0.0
11/01:30pm 39.6 36.1 3.7 11 19.4 SW 11 20 6 11 1009.1 1008.8 0.0
11/01:00pm 39.7 37.2 5.0 12 19.1 S 7 11 4 6 1009.6 1009.2 0.0
11/12:30pm 38.4 35.6 5.1 13 18.2 WSW 9 19 5 10 1010.0 1009.6 0.0
11/12:00pm 37.6 34.9 5.6 14 17.6 SW 9 13 5 7 1010.4 1010.0 0.0
11/11:30am 36.6 34.3 5.8 15 16.9 ESE 7 15 4 8 1010.6 1010.2 0.0
11/11:00am 35.5 32.5 7.6 18 15.6 ESE 13 19 7 10 1010.8 1010.4 0.0
11/10:30am 34.7 30.6 7.7 19 15.1 SE 19 24 10 13 1010.9 1010.5 0.0
11/10:00am 33.8 29.1 7.7 20 14.5 SE 22 28 12 15 1010.9 1010.5 0.0
11/09:30am 32.3 27.6 7.9 22 13.5 SE 22 30 12 16 1010.9 1010.5 0.0
11/09:00am 31.0 26.7 9.3 26 12.2 SSE 22 28 12 15 1010.9 1010.5 0.0
11/08:30am 29.3 25.9 10.4 31 10.7 SSE 19 24 10 13 1010.9 1010.5 0.0
11/08:00am 27.5 23.9 10.7 35 9.5 SSE 20 24 11 13 1010.7 1010.3 0.0
11/07:30am 25.6 22.4 9.8 37 8.7 SSE 17 20 9 11 1010.4 1010.0 0.0
11/07:00am 25.2 21.4 9.1 36 8.8 SSE 19 22 10 12 1010.2 1009.8 0.0
11/06:30am 25.9 21.8 8.8 34 9.3 SSE 20 22 11 12 1009.9 1009.5 0.0
11/06:00am 25.7 23.1 9.5 36 8.9 SSE 13 20 7 11 1009.4 1009.0 0.0
11/05:30am 25.9 22.6 9.7 36 9.0 SSE 17 20 9 11 1009.0 1008.7 0.0
11/05:00am 25.1 22.5 9.4 37 8.6 SSE 13 15 7 8 1008.7 1008.4 0.0
11/04:30am 26.1 23.9 9.5 35 9.2 SSE 11 13 6 7 1008.7 1008.4 0.0
11/04:21am 26.6 24.2 9.9 35 9.3 SSE 13 17 7 9 1008.7 1008.4 0.0
11/04:20am 39.4 35.1 0.7 9 19.9 SSE 13 17 7 9 1010.3 1009.9 0.0
11/04:00am 26.8 23.5 9.6 34 9.5 SSE 17 19 9 10 1008.6 1008.3 0.0
11/03:30am 27.6 24.6 7.5 28 10.8 SSE 13 15 7 8 1008.6 1008.3 0.0
11/03:00am 28.9 25.1 5.7 23 12.2 S 15 19 8 10 1008.5 1008.2 0.0
11/02:30am 29.6 26.9 5.6 22 12.6 S 9 11 5 6 1008.7 1008.4 0.0
11/02:00am 30.3 27.4 4.9 20 13.2 E 9 11 5 6 1008.9 1008.6 0.0
11/01:30am 30.8 27.3 5.3 20 13.4 E 13 19 7 10 1009.2 1008.9 0.0
11/01:00am 28.4 25.4 5.9 24 11.8 S 11 13 6 7 1009.2 1008.9 0.0
11/12:30am 31.6 28.8 5.2 19 14.0 NW 9 13 5 7 1009.4 1009.0 0.0
11/12:00am 31.2 28.0 4.9 19 13.8 NNW 11 13 6 7 1009.7 1009.3 0.0

Other Formats:

Comma delimited format used in spreadsheet applications
http://www.bom.gov.au/fwo/IDS60801/IDS60801.95480.axf

JavaScript Object Notation format (JSON) in row-major order
http://www.bom.gov.au/fwo/IDS60801/IDS60801.95480.json